This is the latest recevied weather packets stored in our database for station/object K7SPS-10. If no packets are shown the sender has not sent any weather packets the latest 10 day(s).
| Time | Temp. | Humidity | Pressure | Rain* | Wind** | Luminosity | Snow |
|---|---|---|---|---|---|---|---|
| 1778386961 | 15.56° C | 48% | 1017.9 hPa | 0 mm | - | 0 W/m² | - |
| 1778386659 | 15.56° C | 49% | 1018.2 hPa | 0 mm | - | 0 W/m² | - |
| 1778386356 | 16.11° C | 45% | 1017.9 hPa | 0 mm | - | 0 W/m² | - |
| 1778386053 | 16.67° C | 46% | 1018 hPa | 0 mm | - | 0 W/m² | - |
| 1778385750 | 16.67° C | 47% | 1018 hPa | 0 mm | - | 0 W/m² | - |
| 1778385445 | 17.22° C | 45% | 1017.8 hPa | 0 mm | - | 0 W/m² | - |
| 1778385141 | 18.33° C | 42% | 1017.8 hPa | 0 mm | - | 0 W/m² | - |
| 1778384837 | 18.89° C | 40% | 1017.7 hPa | 0 mm | - | 0 W/m² | - |
| 1778384535 | 19.44° C | 38% | 1017.4 hPa | 0 mm | - | 0 W/m² | - |
| 1778384231 | 18.89° C | 38% | 1017.5 hPa | 0 mm | - | 0 W/m² | - |
| 1778383929 | 18.33° C | 40% | 1017.4 hPa | 0 mm | - | 0 W/m² | - |
| 1778383625 | 19.44° C | 38% | 1017.3 hPa | 0 mm | - | 0 W/m² | - |
| 1778383321 | 19.44° C | 36% | 1017.5 hPa | 0 mm | - | 0 W/m² | - |
| 1778383015 | 20° C | 34% | 1017.5 hPa | 0 mm | - | 0 W/m² | - |
| 1778382713 | 20.56° C | 32% | 1017.3 hPa | 0 mm | - | 1 W/m² | - |
| 1778382412 | 21.11° C | 32% | 1017.4 hPa | 0 mm | - | 1 W/m² | - |
| 1778382110 | 21.11° C | 32% | 1017.3 hPa | 0 mm | - | 2 W/m² | - |
| 1778381807 | 21.67° C | 31% | 1017.3 hPa | 0 mm | - | 3 W/m² | - |
| 1778381504 | 21.67° C | 31% | 1017 hPa | 0 mm | - | 6 W/m² | - |
| 1778381201 | 22.22° C | 30% | 1017.4 hPa | 0 mm | - | 8 W/m² | - |
| 1778380898 | 22.22° C | 29% | 1017.1 hPa | 0 mm | - | 12 W/m² | - |
| 1778380593 | 23.33° C | 27% | 1017 hPa | 0 mm | - | 15 W/m² | - |
| 1778380291 | 23.89° C | 26% | 1017.1 hPa | 0 mm | - | 20 W/m² | - |
| 1778379991 | 24.44° C | 25% | 1016.8 hPa | 0 mm | - | 24 W/m² | - |
| 1778379686 | 24.44° C | 25% | 1017.3 hPa | 0 mm | - | 27 W/m² | - |
* Rain latest hour (hover to see other rain measurements)
** Current wind speed in m/s (hover to see current wind gust speed)